createdAt,value
2018-06-25T01:35:26.725Z,8.67
2018-06-25T01:49:49.194Z,12.27
2018-06-25T03:16:11.021Z,18.13
2018-06-25T03:18:44.910Z,16.83
2018-06-25T03:21:25.079Z,17.07
2018-06-25T03:24:12.290Z,17.03
2018-06-25T03:26:45.503Z,17.47
2018-06-25T03:29:24.213Z,17.97
2018-06-25T03:31:57.333Z,19.23
2018-06-25T03:34:29.410Z,18.40
2018-06-25T03:37:00.484Z,15.80
2018-06-25T03:39:29.726Z,16.60
2018-06-25T03:41:59.018Z,18.70
2018-06-25T03:44:29.914Z,20.43
2018-06-25T03:47:24.589Z,18.63
2018-06-25T03:59:25.849Z,19.63
2018-06-25T04:01:56.163Z,18.30
2018-06-25T04:04:41.743Z,19.40
2018-06-25T04:07:13.723Z,19.27
2018-06-25T04:09:47.071Z,17.70
2018-06-25T04:18:20.326Z,18.60
2018-06-25T04:21:02.462Z,21.70
2018-06-25T04:29:40.720Z,23.00
2018-06-25T04:37:05.455Z,23.30
2018-06-25T04:39:38.313Z,23.40
2018-06-25T04:42:11.072Z,26.27
2018-06-25T04:46:09.473Z,24.90
2018-06-25T04:49:02.714Z,27.30
2018-06-25T04:51:31.836Z,21.07
2018-06-25T04:54:07.657Z,24.40
2018-06-25T04:59:22.820Z,27.93
2018-06-25T05:01:51.747Z,22.23
2018-06-25T05:04:22.638Z,26.57
2018-06-25T05:06:58.530Z,29.53
2018-06-25T05:09:31.360Z,26.87
2018-06-25T05:12:01.253Z,23.77
2018-06-25T05:14:31.950Z,27.70
2018-06-25T05:17:02.812Z,23.33
2018-06-25T05:19:32.812Z,23.33
2018-06-25T05:22:03.215Z,23.47
2018-06-25T05:24:32.365Z,32.57
2018-06-25T05:27:01.506Z,23.43
2018-06-25T05:29:31.609Z,28.37
2018-06-25T05:32:00.679Z,25.13
2018-06-25T05:34:29.856Z,26.73
2018-06-25T05:39:36.615Z,27.60
2018-06-25T05:42:33.550Z,26.40
2018-06-25T05:45:03.321Z,21.80
2018-06-25T05:47:35.910Z,22.90
2018-06-25T05:50:06.111Z,22.63
2018-06-25T05:52:35.122Z,21.03
2018-06-25T05:55:04.871Z,28.00
2018-06-25T05:57:34.036Z,27.27
2018-06-25T06:00:03.268Z,24.20
2018-06-25T06:05:30.804Z,22.83
2018-06-25T06:08:19.499Z,20.93
2018-06-25T06:10:55.357Z,19.23
2018-06-25T06:13:25.391Z,21.93
2018-06-25T06:16:21.747Z,20.93
2018-06-25T06:25:59.291Z,22.63
2018-06-25T06:28:29.482Z,20.67
2018-06-25T06:31:23.675Z,20.77
2018-06-25T06:33:53.937Z,20.43
2018-06-25T06:51:49.668Z,21.27
2018-06-25T06:57:31.655Z,14.83
2018-06-25T07:03:03.144Z,21.57
2018-06-25T07:05:33.719Z,20.40
2018-06-25T07:11:20.209Z,16.47
2018-06-25T07:39:17.675Z,13.33
2018-06-25T07:50:42.866Z,15.37
2018-06-25T09:38:13.374Z,6.87
2018-06-25T09:45:49.917Z,6.60
2018-06-25T09:48:41.469Z,5.83
2018-06-25T09:54:21.263Z,6.23
2018-06-25T10:52:34.447Z,4.37
2018-06-25T10:55:14.670Z,7.37
2018-06-25T11:12:17.326Z,6.23
2018-06-25T11:20:44.505Z,3.57
2018-06-25T11:23:22.099Z,3.73
2018-06-25T11:28:45.257Z,3.93
2018-06-25T12:01:43.986Z,6.73
2018-06-25T12:04:35.421Z,6.63
2018-06-25T12:16:05.295Z,3.63
2018-06-25T12:23:27.767Z,5.23
2018-06-25T12:26:08.351Z,5.30
2018-06-25T12:28:50.669Z,3.47
2018-06-25T12:31:19.859Z,5.00
2018-06-25T12:33:51.498Z,5.90
2018-06-25T12:36:31.809Z,5.43
2018-06-25T12:39:00.902Z,4.80
2018-06-25T12:41:31.220Z,5.03
2018-06-25T12:59:34.074Z,5.87
2018-06-25T13:05:06.401Z,5.80
2018-06-25T13:07:36.358Z,5.50
2018-06-25T13:19:20.925Z,5.37
2018-06-25T13:22:07.441Z,5.70
2018-06-25T13:24:36.308Z,4.37
2018-06-25T13:27:05.077Z,4.27
2018-06-25T13:29:34.066Z,3.53
2018-06-25T13:32:02.974Z,3.93
2018-06-25T13:34:31.875Z,5.57
2018-06-25T13:37:00.927Z,6.87
2018-06-25T13:39:29.839Z,4.60
2018-06-25T13:41:58.830Z,6.70
2018-06-25T13:44:29.690Z,3.60
2018-06-25T13:46:58.874Z,5.10
2018-06-25T13:49:27.830Z,5.83
2018-06-25T13:51:57.121Z,3.10
2018-06-25T13:54:26.375Z,9.37
2018-06-25T13:56:55.742Z,5.07
2018-06-25T13:59:24.862Z,3.40
2018-06-25T14:01:55.514Z,4.67
2018-06-25T14:04:34.297Z,4.47
2018-06-25T14:07:05.190Z,3.90
2018-06-25T14:09:34.270Z,4.20
2018-06-25T14:12:03.363Z,3.87
2018-06-25T14:14:32.250Z,3.77
2018-06-25T14:17:01.419Z,5.70
2018-06-25T14:19:30.768Z,5.90
2018-06-25T14:21:59.444Z,6.40
2018-06-25T14:24:36.541Z,5.97
2018-06-25T14:27:10.855Z,4.90
2018-06-25T14:29:46.145Z,4.83
2018-06-25T14:32:21.710Z,4.03
2018-06-25T14:34:55.606Z,2.93
2018-06-25T14:37:28.662Z,5.80
2018-06-25T14:39:57.839Z,8.20
2018-06-25T14:42:27.000Z,5.47
2018-06-25T14:44:56.337Z,5.70
2018-06-25T14:47:25.464Z,3.27
2018-06-25T14:49:54.925Z,3.17
2018-06-25T14:52:26.028Z,4.47
2018-06-25T14:54:58.286Z,4.30
2018-06-25T14:57:27.914Z,4.23
2018-06-25T14:59:57.300Z,5.77
2018-06-25T15:02:29.547Z,4.53
2018-06-25T15:04:59.019Z,3.53
2018-06-25T15:13:14.245Z,7.20
2018-06-25T15:15:43.192Z,4.07
2018-06-25T15:18:15.553Z,3.47
2018-06-25T15:20:44.631Z,5.57
2018-06-25T15:23:16.106Z,8.07
2018-06-25T15:25:45.650Z,4.07
2018-06-25T15:28:24.958Z,2.93
2018-06-25T15:30:53.965Z,4.93
2018-06-25T15:33:22.783Z,6.13
2018-06-25T15:35:53.331Z,4.20
2018-06-25T15:38:22.636Z,5.13
2018-06-25T15:41:09.208Z,4.30
2018-06-25T15:43:39.475Z,3.37
2018-06-25T15:46:10.737Z,3.07
2018-06-25T15:48:47.793Z,3.00
2018-06-25T15:51:25.070Z,6.23
2018-06-25T15:53:57.593Z,5.93
2018-06-25T15:56:27.164Z,5.67
2018-06-25T15:58:57.398Z,3.13
2018-06-25T16:01:26.318Z,4.20
2018-06-25T16:04:09.458Z,8.20
2018-06-25T16:06:40.704Z,4.63
2018-06-25T16:09:11.575Z,5.03
2018-06-25T16:11:41.115Z,6.37
2018-06-25T16:14:10.360Z,4.10
2018-06-25T16:25:18.571Z,5.17
2018-06-25T16:30:40.854Z,7.50
2018-06-25T16:33:09.963Z,4.37
2018-06-25T16:35:38.993Z,4.27
2018-06-25T16:38:07.731Z,3.63
2018-06-25T16:40:36.737Z,3.80
2018-06-25T16:43:07.227Z,5.83
2018-06-25T16:45:36.159Z,3.40
2018-06-25T16:48:05.321Z,8.37
2018-06-25T16:50:35.381Z,6.43
2018-06-25T16:55:40.482Z,5.57
2018-06-25T16:58:09.272Z,6.63
2018-06-25T17:00:44.671Z,6.03
2018-06-25T17:03:14.755Z,5.80
2018-06-25T17:05:43.879Z,6.90
2018-06-25T17:08:18.935Z,7.53
2018-06-25T17:10:47.632Z,7.67
2018-06-25T17:13:23.742Z,5.63
2018-06-25T17:15:52.772Z,5.70
2018-06-25T17:18:22.539Z,5.47
2018-06-25T17:20:51.741Z,4.77
2018-06-25T17:23:27.517Z,3.63
2018-06-25T17:26:02.251Z,4.70
2018-06-25T17:28:37.160Z,5.30
2018-06-25T17:31:07.389Z,7.10
2018-06-25T17:33:39.734Z,7.53
2018-06-25T17:36:11.357Z,5.63
2018-06-25T17:38:41.734Z,3.20
2018-06-25T17:41:12.783Z,5.37
2018-06-25T17:43:42.854Z,9.77
2018-06-25T17:46:12.060Z,5.70
2018-06-25T17:49:03.039Z,5.40
2018-06-25T17:51:32.229Z,6.27
2018-06-25T17:54:22.698Z,4.60
2018-06-25T17:57:03.150Z,5.63
2018-06-25T17:59:42.352Z,6.50
2018-06-25T18:02:15.834Z,4.47
2018-06-25T18:04:55.216Z,6.07
2018-06-25T18:10:02.025Z,6.87
2018-06-25T18:12:31.694Z,3.77
2018-06-25T18:15:03.543Z,7.63
2018-06-25T18:17:40.685Z,6.47
2018-06-25T18:32:36.749Z,6.63
2018-06-25T19:08:16.573Z,7.70
2018-06-25T19:16:59.712Z,6.33
2018-06-25T20:16:14.290Z,9.60
2018-06-25T21:28:08.043Z,11.93
